createdAt,value
2023-02-24T00:00:00.462Z,1014.09
2023-02-24T00:16:02.728Z,1013.99
2023-02-24T00:31:04.703Z,1013.92
2023-02-24T00:46:01.471Z,1013.82
2023-02-24T01:00:03.283Z,1013.82
2023-02-24T01:16:00.641Z,1013.75
2023-02-24T01:31:02.954Z,1013.65
2023-02-24T01:46:04.820Z,1013.52
2023-02-24T02:00:01.607Z,1013.52
2023-02-24T02:16:03.779Z,1013.31
2023-02-24T02:31:00.683Z,1013.21
2023-02-24T02:46:02.767Z,1013.11
2023-02-24T03:00:04.850Z,1013.11
2023-02-24T03:16:01.878Z,1013.01
2023-02-24T03:31:04.023Z,1012.97
2023-02-24T03:46:00.946Z,1012.97
2023-02-24T04:00:02.686Z,1012.91
2023-02-24T04:16:00.040Z,1012.87
2023-02-24T04:31:01.970Z,1012.7
2023-02-24T04:46:13.889Z,1012.6
2023-02-24T05:00:03.349Z,1012.57
2023-02-24T05:16:03.367Z,1012.47
2023-02-24T05:31:00.543Z,1012.47
2023-02-24T05:46:02.522Z,1012.4
2023-02-24T06:00:04.648Z,1012.36
2023-02-24T06:16:01.761Z,1012.3
2023-02-24T06:31:03.882Z,1012.33
2023-02-24T06:46:00.799Z,1012.33
2023-02-24T07:00:02.657Z,1012.33
2023-02-24T07:15:59.928Z,1012.23
2023-02-24T07:31:02.056Z,1012.19
2023-02-24T07:46:05.315Z,1012.19
2023-02-24T08:00:00.839Z,1011.96
2023-02-24T08:16:05.210Z,1011.72
2023-02-24T08:31:04.797Z,1011.55
2023-02-24T08:46:01.897Z,1011.28
2023-02-24T09:00:03.950Z,1011.25
2023-02-24T09:16:01.312Z,1011.15
2023-02-24T09:31:03.360Z,1011.01
2023-02-24T09:46:00.689Z,1010.84
2023-02-24T10:00:02.486Z,1010.67
2023-02-24T10:16:05.921Z,1010.33
2023-02-24T10:31:02.061Z,1010.03
2023-02-24T10:46:03.883Z,1009.66
2023-02-24T11:00:00.611Z,1009.38
2023-02-24T11:16:02.841Z,1009.11
2023-02-24T11:30:59.823Z,1008.71
2023-02-24T11:46:01.892Z,1008.47
2023-02-24T12:00:03.829Z,1008.1
2023-02-24T12:16:01.180Z,1007.89
2023-02-24T12:31:03.528Z,1007.72
2023-02-24T12:46:00.284Z,1007.52
2023-02-24T13:00:02.233Z,1007.45
2023-02-24T13:16:04.199Z,1007.08
2023-02-24T13:31:01.540Z,1006.84
2023-02-24T13:46:03.518Z,1006.78
2023-02-24T14:00:00.384Z,1006.44
2023-02-24T14:16:02.824Z,1006.3
2023-02-24T14:31:00.037Z,1005.96
2023-02-24T14:46:02.206Z,1005.79
2023-02-24T15:00:03.999Z,1005.63
2023-02-24T15:16:01.090Z,1005.35
2023-02-24T15:31:03.394Z,1005.22
2023-02-24T15:46:00.351Z,1005.12
2023-02-24T16:00:02.467Z,1004.85
2023-02-24T16:16:04.241Z,1004.58
2023-02-24T16:31:01.352Z,1004.44
2023-02-24T16:46:03.324Z,1004.51
2023-02-24T17:00:00.237Z,1004.61
2023-02-24T17:16:02.445Z,1004.58
2023-02-24T17:31:04.692Z,1004.74
2023-02-24T17:46:01.718Z,1004.71
2023-02-24T18:00:03.375Z,1004.81
2023-02-24T18:16:00.533Z,1004.68
2023-02-24T18:31:02.690Z,1004.58
2023-02-24T18:45:59.708Z,1004.37
2023-02-24T19:00:01.568Z,1004.2
2023-02-24T19:16:03.904Z,1004.03
2023-02-24T19:31:00.847Z,1003.93
2023-02-24T19:46:02.906Z,1003.73
2023-02-24T19:59:59.799Z,1003.56
2023-02-24T20:16:01.864Z,1003.53
2023-02-24T20:31:04.045Z,1003.39
2023-02-24T20:46:01.137Z,1003.19
2023-02-24T21:00:03.949Z,1003.09
2023-02-24T21:16:00.065Z,1002.92
2023-02-24T21:31:02.154Z,1002.61
2023-02-24T21:46:04.130Z,1002.61
2023-02-24T22:00:00.921Z,1002.54
2023-02-24T22:16:03.356Z,1002.21
2023-02-24T22:31:00.402Z,1001.9
2023-02-24T22:46:02.483Z,1001.73
2023-02-24T23:00:04.619Z,1001.63
2023-02-24T23:16:01.960Z,1001.12
2023-02-24T23:31:04.060Z,1000.88
2023-02-24T23:46:00.918Z,1000.82
